Pep, Texas
Current Conditions -  °F | °C
As of 9:53 PM on Wednesday 26 Nov 2014 (Local Time) from KLBB Reporting Station
Clear Clear  
Wind Chill: 31°   Ceiling: Unl
Heat Index: 37°   Visibility: 10mi
Dew Point: 25°   Wind: 8mph
Humidity: 62%   Direction: 90°E
Pressure: 30.36"   Gusts: NA
Location:  33.81°N, 102.56°W
Report Text: KLBB 270353Z 09007KT 10SM CLR 03/M04 A3036 RMK AO2 SLP279 T00281039
Loading
Personal Weather Stations






























Interactive Weather Map New forecast layout! Learn more

10-Day Weather Forecast

Advertisements
Track Severe Weather on mobile